sensor_id;sensor_type;location;lat;lon;timestamp;pressure;altitude;pressure_sealevel;temperature;humidity
46291;BME280;32023;44.444;26.006;2023-03-13T00:01:20;100819.56;;;5.68;58.09
46291;BME280;32023;44.444;26.006;2023-03-13T00:03:49;100817.44;;;5.70;58.27
46291;BME280;32023;44.444;26.006;2023-03-13T00:06:25;100820.81;;;5.72;58.54
46291;BME280;32023;44.444;26.006;2023-03-13T00:09:26;100817.03;;;5.73;58.15
46291;BME280;32023;44.444;26.006;2023-03-13T00:14:29;100813.81;;;5.83;56.78
46291;BME280;32023;44.444;26.006;2023-03-13T00:19:49;100825.81;;;5.89;57.25
46291;BME280;32023;44.444;26.006;2023-03-13T00:22:17;100820.34;;;5.89;56.41
46291;BME280;32023;44.444;26.006;2023-03-13T00:24:49;100826.44;;;5.91;56.26
46291;BME280;32023;44.444;26.006;2023-03-13T00:27:18;100829.16;;;5.91;56.08
46291;BME280;32023;44.444;26.006;2023-03-13T00:29:48;100830.22;;;5.90;56.04
46291;BME280;32023;44.444;26.006;2023-03-13T00:32:22;100830.22;;;5.90;56.16
46291;BME280;32023;44.444;26.006;2023-03-13T00:34:49;100831.28;;;5.89;55.76
46291;BME280;32023;44.444;26.006;2023-03-13T00:37:17;100835.91;;;5.88;55.90
46291;BME280;32023;44.444;26.006;2023-03-13T00:39:47;100826.88;;;5.81;56.77
46291;BME280;32023;44.444;26.006;2023-03-13T00:42:14;100830.06;;;5.71;57.35
46291;BME280;32023;44.444;26.006;2023-03-13T00:44:48;100825.88;;;5.69;57.96
46291;BME280;32023;44.444;26.006;2023-03-13T00:50:23;100827.56;;;5.70;57.94
46291;BME280;32023;44.444;26.006;2023-03-13T00:52:52;100831.94;;;5.71;58.36
46291;BME280;32023;44.444;26.006;2023-03-13T00:55:21;100834.91;;;5.69;58.00
46291;BME280;32023;44.444;26.006;2023-03-13T00:57:47;100833.84;;;5.70;57.87
46291;BME280;32023;44.444;26.006;2023-03-13T01:00:19;100834.06;;;5.69;56.76
46291;BME280;32023;44.444;26.006;2023-03-13T01:02:45;100832.41;;;5.61;57.64
46291;BME280;32023;44.444;26.006;2023-03-13T01:05:14;100825.50;;;5.52;58.52
46291;BME280;32023;44.444;26.006;2023-03-13T01:07:40;100834.56;;;5.46;58.78
46291;BME280;32023;44.444;26.006;2023-03-13T01:10:07;100834.38;;;5.41;58.50
46291;BME280;32023;44.444;26.006;2023-03-13T01:12:33;100833.13;;;5.37;58.59
46291;BME280;32023;44.444;26.006;2023-03-13T01:14:59;100830.22;;;5.32;59.12
46291;BME280;32023;44.444;26.006;2023-03-13T01:17:26;100837.16;;;5.28;59.53
46291;BME280;32023;44.444;26.006;2023-03-13T01:19:55;100841.56;;;5.22;59.31
46291;BME280;32023;44.444;26.006;2023-03-13T01:22:42;100845.34;;;5.15;59.55
46291;BME280;32023;44.444;26.006;2023-03-13T01:25:09;100840.34;;;5.05;59.83
46291;BME280;32023;44.444;26.006;2023-03-13T01:27:44;100843.69;;;5.01;60.46
46291;BME280;32023;44.444;26.006;2023-03-13T01:32:43;100833.63;;;4.88;60.73
46291;BME280;32023;44.444;26.006;2023-03-13T01:35:12;100844.13;;;4.84;60.85
46291;BME280;32023;44.444;26.006;2023-03-13T01:37:51;100850.44;;;4.78;60.92
46291;BME280;32023;44.444;26.006;2023-03-13T01:40:28;100855.47;;;4.75;61.50
46291;BME280;32023;44.444;26.006;2023-03-13T01:42:57;100839.72;;;4.70;61.29
46291;BME280;32023;44.444;26.006;2023-03-13T02:00:09;100871.41;;;4.52;62.46
46291;BME280;32023;44.444;26.006;2023-03-13T02:02:37;100874.31;;;4.50;62.10
46291;BME280;32023;44.444;26.006;2023-03-13T02:13:30;100880.19;;;4.34;61.34
46291;BME280;32023;44.444;26.006;2023-03-13T02:15:56;100881.84;;;4.35;61.11
46291;BME280;32023;44.444;26.006;2023-03-13T02:18:28;100886.06;;;4.38;61.46
46291;BME280;32023;44.444;26.006;2023-03-13T02:21:04;100886.06;;;4.38;61.50
46291;BME280;32023;44.444;26.006;2023-03-13T02:23:36;100888.97;;;4.36;61.35
46291;BME280;32023;44.444;26.006;2023-03-13T02:26:04;100891.09;;;4.34;61.09
46291;BME280;32023;44.444;26.006;2023-03-13T02:28:33;100892.75;;;4.28;61.40
46291;BME280;32023;44.444;26.006;2023-03-13T02:31:07;100894.44;;;4.23;61.38
46291;BME280;32023;44.444;26.006;2023-03-13T02:33:43;100895.47;;;4.22;61.05
46291;BME280;32023;44.444;26.006;2023-03-13T02:36:12;100902.78;;;4.15;61.02
46291;BME280;32023;44.444;26.006;2023-03-13T02:38:47;100915.72;;;4.00;61.33
46291;BME280;32023;44.444;26.006;2023-03-13T02:41:18;100918.19;;;3.88;61.38
46291;BME280;32023;44.444;26.006;2023-03-13T02:43:48;100913.09;;;3.78;61.27
46291;BME280;32023;44.444;26.006;2023-03-13T02:49:15;100927.53;;;3.72;61.31
46291;BME280;32023;44.444;26.006;2023-03-13T02:51:47;100940.28;;;3.65;61.87
46291;BME280;32023;44.444;26.006;2023-03-13T02:54:21;100936.47;;;3.60;62.20
46291;BME280;32023;44.444;26.006;2023-03-13T02:56:49;100939.41;;;3.58;61.85
46291;BME280;32023;44.444;26.006;2023-03-13T02:59:22;100948.00;;;3.62;62.25
46291;BME280;32023;44.444;26.006;2023-03-13T03:01:51;100948.84;;;3.62;62.22
46291;BME280;32023;44.444;26.006;2023-03-13T03:04:34;100956.19;;;3.62;62.19
46291;BME280;32023;44.444;26.006;2023-03-13T03:07:05;100959.09;;;3.60;62.08
46291;BME280;32023;44.444;26.006;2023-03-13T03:12:14;100979.50;;;3.43;63.28
46291;BME280;32023;44.444;26.006;2023-03-13T03:14:41;100979.06;;;3.39;63.35
46291;BME280;32023;44.444;26.006;2023-03-13T03:17:14;100974.38;;;3.33;63.81
46291;BME280;32023;44.444;26.006;2023-03-13T03:19:45;100981.47;;;3.28;64.04
46291;BME280;32023;44.444;26.006;2023-03-13T03:22:14;100986.47;;;3.24;64.27
46291;BME280;32023;44.444;26.006;2023-03-13T03:24:43;100986.81;;;3.15;64.41
46291;BME280;32023;44.444;26.006;2023-03-13T03:27:13;100987.66;;;3.15;64.58
46291;BME280;32023;44.444;26.006;2023-03-13T03:29:39;100983.81;;;3.10;64.87
46291;BME280;32023;44.444;26.006;2023-03-13T03:32:16;100993.81;;;3.03;65.20
46291;BME280;32023;44.444;26.006;2023-03-13T03:34:46;101004.69;;;3.03;65.39
46291;BME280;32023;44.444;26.006;2023-03-13T03:37:16;101008.81;;;2.99;65.54
46291;BME280;32023;44.444;26.006;2023-03-13T03:39:42;101014.28;;;2.99;65.67
46291;BME280;32023;44.444;26.006;2023-03-13T03:42:12;101014.28;;;2.99;65.67
46291;BME280;32023;44.444;26.006;2023-03-13T03:44:41;101015.72;;;2.95;65.98
46291;BME280;32023;44.444;26.006;2023-03-13T03:47:19;101022.59;;;2.90;66.17
46291;BME280;32023;44.444;26.006;2023-03-13T03:49:59;101025.88;;;2.86;66.30
46291;BME280;32023;44.444;26.006;2023-03-13T03:52:28;101037.59;;;2.86;66.50
46291;BME280;32023;44.444;26.006;2023-03-13T03:54:54;101044.56;;;2.74;66.83
46291;BME280;32023;44.444;26.006;2023-03-13T03:57:39;101050.97;;;2.67;66.87
46291;BME280;32023;44.444;26.006;2023-03-13T04:03:07;101056.22;;;2.68;66.74
46291;BME280;32023;44.444;26.006;2023-03-13T04:05:33;101057.06;;;2.69;66.42
46291;BME280;32023;44.444;26.006;2023-03-13T04:08:02;101051.53;;;2.62;66.61
46291;BME280;32023;44.444;26.006;2023-03-13T04:13:42;101058.25;;;2.45;67.42
46291;BME280;32023;44.444;26.006;2023-03-13T04:16:14;101055.63;;;2.37;67.77
46291;BME280;32023;44.444;26.006;2023-03-13T04:21:32;101059.19;;;2.37;67.68
46291;BME280;32023;44.444;26.006;2023-03-13T04:24:07;101069.69;;;2.40;67.67
46291;BME280;32023;44.444;26.006;2023-03-13T04:26:33;101061.31;;;2.42;67.48
46291;BME280;32023;44.444;26.006;2023-03-13T04:29:02;101066.75;;;2.42;67.74
46291;BME280;32023;44.444;26.006;2023-03-13T04:31:33;101075.59;;;2.44;67.72
46291;BME280;32023;44.444;26.006;2023-03-13T04:34:00;101078.09;;;2.46;67.60
46291;BME280;32023;44.444;26.006;2023-03-13T04:36:38;101078.94;;;2.46;67.77
46291;BME280;32023;44.444;26.006;2023-03-13T04:39:04;101082.72;;;2.45;67.84
46291;BME280;32023;44.444;26.006;2023-03-13T04:41:31;101086.25;;;2.46;67.79
46291;BME280;32023;44.444;26.006;2023-03-13T04:44:02;101084.28;;;2.39;68.46
46291;BME280;32023;44.444;26.006;2023-03-13T04:48:59;101097.59;;;2.34;68.96
46291;BME280;32023;44.444;26.006;2023-03-13T04:51:25;101089.19;;;2.29;69.21
46291;BME280;32023;44.444;26.006;2023-03-13T04:53:55;101098.91;;;2.24;69.93
46291;BME280;32023;44.444;26.006;2023-03-13T04:56:25;101103.34;;;2.25;70.10
46291;BME280;32023;44.444;26.006;2023-03-13T04:58:54;101108.69;;;2.33;69.92
46291;BME280;32023;44.444;26.006;2023-03-13T05:01:20;101113.16;;;2.40;69.77
46291;BME280;32023;44.444;26.006;2023-03-13T05:06:44;101117.56;;;2.56;69.42
46291;BME280;32023;44.444;26.006;2023-03-13T05:09:10;101113.50;;;2.67;69.11
46291;BME280;32023;44.444;26.006;2023-03-13T05:11:48;101126.16;;;2.74;68.73
46291;BME280;32023;44.444;26.006;2023-03-13T05:18:43;101120.75;;;2.96;68.09
46291;BME280;32023;44.444;26.006;2023-03-13T05:32:57;101118.56;;;3.48;66.42
46291;BME280;32023;44.444;26.006;2023-03-13T05:35:24;101140.50;;;3.61;66.31
46291;BME280;32023;44.444;26.006;2023-03-13T05:37:57;101122.59;;;3.73;65.73
46291;BME280;32023;44.444;26.006;2023-03-13T05:43:41;101113.97;;;3.98;65.11
46291;BME280;32023;44.444;26.006;2023-03-13T05:46:36;101116.59;;;4.12;64.47
46291;BME280;32023;44.444;26.006;2023-03-13T05:49:11;101113.53;;;4.22;64.59
46291;BME280;32023;44.444;26.006;2023-03-13T05:51:53;101105.34;;;4.22;64.57
46291;BME280;32023;44.444;26.006;2023-03-13T05:54:36;101105.41;;;4.35;64.67
46291;BME280;32023;44.444;26.006;2023-03-13T05:57:35;101104.66;;;4.48;63.57
46291;BME280;32023;44.444;26.006;2023-03-13T06:00:07;101093.34;;;4.57;63.44
46291;BME280;32023;44.444;26.006;2023-03-13T06:02:34;101088.81;;;4.71;62.46
46291;BME280;32023;44.444;26.006;2023-03-13T06:05:20;101090.72;;;4.83;61.94
46291;BME280;32023;44.444;26.006;2023-03-13T06:07:48;101098.34;;;5.01;62.33
46291;BME280;32023;44.444;26.006;2023-03-13T06:10:14;101099.88;;;5.17;60.77
46291;BME280;32023;44.444;26.006;2023-03-13T06:12:40;101093.81;;;5.28;61.47
46291;BME280;32023;44.444;26.006;2023-03-13T06:15:07;101098.66;;;5.52;60.73
46291;BME280;32023;44.444;26.006;2023-03-13T06:17:34;101102.88;;;5.68;59.78
46291;BME280;32023;44.444;26.006;2023-03-13T06:20:01;101103.94;;;5.87;59.37
46291;BME280;32023;44.444;26.006;2023-03-13T06:22:28;101106.47;;;6.08;58.70
46291;BME280;32023;44.444;26.006;2023-03-13T06:24:55;101111.88;;;6.27;58.28
46291;BME280;32023;44.444;26.006;2023-03-13T06:27:21;101117.13;;;6.49;57.89
46291;BME280;32023;44.444;26.006;2023-03-13T06:29:48;101120.19;;;6.65;56.95
46291;BME280;32023;44.444;26.006;2023-03-13T06:34:56;101114.81;;;6.97;55.57
46291;BME280;32023;44.444;26.006;2023-03-13T06:37:23;101115.25;;;6.94;54.93
46291;BME280;32023;44.444;26.006;2023-03-13T06:39:49;101119.28;;;6.85;55.42
46291;BME280;32023;44.444;26.006;2023-03-13T06:42:15;101121.19;;;6.91;54.91
46291;BME280;32023;44.444;26.006;2023-03-13T06:44:41;101116.03;;;7.07;54.88
46291;BME280;32023;44.444;26.006;2023-03-13T06:50:29;101117.66;;;7.15;54.84
46291;BME280;32023;44.444;26.006;2023-03-13T06:59:02;101126.53;;;7.48;53.53
46291;BME280;32023;44.444;26.006;2023-03-13T07:01:54;101120.69;;;7.69;53.57
46291;BME280;32023;44.444;26.006;2023-03-13T07:10:43;101115.22;;;7.94;53.09
46291;BME280;32023;44.444;26.006;2023-03-13T07:13:15;101131.88;;;8.17;52.40
46291;BME280;32023;44.444;26.006;2023-03-13T07:16:11;101133.28;;;8.27;51.89
46291;BME280;32023;44.444;26.006;2023-03-13T07:18:55;101131.47;;;8.39;52.58
46291;BME280;32023;44.444;26.006;2023-03-13T07:24:39;101134.31;;;9.05;50.98
46291;BME280;32023;44.444;26.006;2023-03-13T07:27:19;101146.84;;;9.01;49.83
46291;BME280;32023;44.444;26.006;2023-03-13T07:29:46;101140.41;;;9.07;49.05
46291;BME280;32023;44.444;26.006;2023-03-13T07:35:29;101147.34;;;9.28;48.17
46291;BME280;32023;44.444;26.006;2023-03-13T07:38:00;101142.16;;;9.49;46.51
46291;BME280;32023;44.444;26.006;2023-03-13T07:40:27;101155.63;;;9.69;46.18
46291;BME280;32023;44.444;26.006;2023-03-13T07:42:58;101140.81;;;9.70;46.85
46291;BME280;32023;44.444;26.006;2023-03-13T07:48:15;101153.97;;;9.80;46.28
46291;BME280;32023;44.444;26.006;2023-03-13T07:50:41;101141.09;;;10.03;45.29
46291;BME280;32023;44.444;26.006;2023-03-13T07:53:08;101145.47;;;10.23;44.96
46291;BME280;32023;44.444;26.006;2023-03-13T07:55:37;101146.53;;;10.33;45.00
46291;BME280;32023;44.444;26.006;2023-03-13T07:58:03;101152.06;;;10.33;45.30
46291;BME280;32023;44.444;26.006;2023-03-13T08:00:29;101145.34;;;10.29;44.10
46291;BME280;32023;44.444;26.006;2023-03-13T08:02:56;101144.63;;;10.22;44.41
46291;BME280;32023;44.444;26.006;2023-03-13T08:05:22;101141.47;;;10.07;44.55
46291;BME280;32023;44.444;26.006;2023-03-13T08:07:51;101144.72;;;10.62;43.79
46291;BME280;32023;44.444;26.006;2023-03-13T08:10:17;101150.38;;;11.07;43.17
46291;BME280;32023;44.444;26.006;2023-03-13T08:12:43;101145.75;;;11.36;41.70
46291;BME280;32023;44.444;26.006;2023-03-13T08:15:10;101147.56;;;11.58;41.63
46291;BME280;32023;44.444;26.006;2023-03-13T08:17:38;101144.03;;;11.75;40.99
46291;BME280;32023;44.444;26.006;2023-03-13T08:20:13;101146.47;;;11.88;40.43
46291;BME280;32023;44.444;26.006;2023-03-13T08:22:40;101126.75;;;11.96;38.80
46291;BME280;32023;44.444;26.006;2023-03-13T08:25:08;101126.56;;;12.36;39.02
46291;BME280;32023;44.444;26.006;2023-03-13T08:30:14;101127.69;;;12.95;37.06
46291;BME280;32023;44.444;26.006;2023-03-13T08:32:41;101119.31;;;12.90;36.78
46291;BME280;32023;44.444;26.006;2023-03-13T08:35:07;101115.91;;;13.26;36.78
46291;BME280;32023;44.444;26.006;2023-03-13T08:37:34;101124.22;;;13.26;36.22
46291;BME280;32023;44.444;26.006;2023-03-13T08:40:00;101115.56;;;13.44;36.06
46291;BME280;32023;44.444;26.006;2023-03-13T08:42:29;101110.41;;;13.80;34.84
46291;BME280;32023;44.444;26.006;2023-03-13T08:44:55;101126.97;;;14.07;34.36
46291;BME280;32023;44.444;26.006;2023-03-13T08:47:23;101119.50;;;14.07;34.18
46291;BME280;32023;44.444;26.006;2023-03-13T08:49:51;101112.34;;;14.16;33.78
46291;BME280;32023;44.444;26.006;2023-03-13T08:52:32;101109.22;;;14.34;33.33
46291;BME280;32023;44.444;26.006;2023-03-13T08:55:04;101115.06;;;14.38;33.30
46291;BME280;32023;44.444;26.006;2023-03-13T08:57:30;101115.13;;;14.48;33.01
46291;BME280;32023;44.444;26.006;2023-03-13T09:00:02;101117.06;;;14.94;32.56
46291;BME280;32023;44.444;26.006;2023-03-13T09:02:36;101124.03;;;15.02;32.31
46291;BME280;32023;44.444;26.006;2023-03-13T09:05:03;101122.84;;;14.93;32.38
46291;BME280;32023;44.444;26.006;2023-03-13T09:07:29;101116.00;;;14.59;32.79
46291;BME280;32023;44.444;26.006;2023-03-13T09:09:55;101115.31;;;14.36;32.91
46291;BME280;32023;44.444;26.006;2023-03-13T09:12:29;101115.63;;;14.92;32.57
46291;BME280;32023;44.444;26.006;2023-03-13T09:15:10;101100.72;;;15.03;32.09
46291;BME280;32023;44.444;26.006;2023-03-13T09:17:44;101100.25;;;15.26;32.18
46291;BME280;32023;44.444;26.006;2023-03-13T09:20:11;101097.91;;;15.85;31.77
46291;BME280;32023;44.444;26.006;2023-03-13T09:22:37;101082.59;;;16.18;31.09
46291;BME280;32023;44.444;26.006;2023-03-13T09:27:50;101098.44;;;16.23;30.72
46291;BME280;32023;44.444;26.006;2023-03-13T09:30:18;101091.44;;;16.71;29.14
46291;BME280;32023;44.444;26.006;2023-03-13T09:32:49;101088.06;;;16.84;29.10
46291;BME280;32023;44.444;26.006;2023-03-13T09:35:24;101083.78;;;17.07;27.73
46291;BME280;32023;44.444;26.006;2023-03-13T09:40:48;101094.31;;;17.15;27.26
46291;BME280;32023;44.444;26.006;2023-03-13T09:46:05;101083.06;;;17.84;27.07
46291;BME280;32023;44.444;26.006;2023-03-13T09:48:50;101081.47;;;18.36;26.40
46291;BME280;32023;44.444;26.006;2023-03-13T09:51:39;101086.06;;;18.21;26.33
46291;BME280;32023;44.444;26.006;2023-03-13T10:00:18;101079.38;;;18.80;24.06
46291;BME280;32023;44.444;26.006;2023-03-13T10:03:02;101078.00;;;19.62;23.34
46291;BME280;32023;44.444;26.006;2023-03-13T10:05:35;101072.00;;;20.20;22.34
46291;BME280;32023;44.444;26.006;2023-03-13T10:08:14;101074.19;;;20.69;21.56
46291;BME280;32023;44.444;26.006;2023-03-13T10:13:54;101068.84;;;22.07;19.85
46291;BME280;32023;44.444;26.006;2023-03-13T10:16:26;101057.69;;;23.26;19.13
46291;BME280;32023;44.444;26.006;2023-03-13T10:18:54;101056.25;;;24.23;17.40
46291;BME280;32023;44.444;26.006;2023-03-13T10:21:31;101059.66;;;24.54;16.99
46291;BME280;32023;44.444;26.006;2023-03-13T10:24:03;101058.56;;;24.84;16.87
46291;BME280;32023;44.444;26.006;2023-03-13T10:26:31;101042.84;;;25.96;15.81
46291;BME280;32023;44.444;26.006;2023-03-13T10:32:11;101040.47;;;26.63;13.78
46291;BME280;32023;44.444;26.006;2023-03-13T10:37:13;101030.09;;;27.52;13.69
46291;BME280;32023;44.444;26.006;2023-03-13T10:39:42;101029.94;;;28.44;13.13
46291;BME280;32023;44.444;26.006;2023-03-13T10:42:59;101013.63;;;29.35;12.45
46291;BME280;32023;44.444;26.006;2023-03-13T10:45:00;101013.09;;;29.30;12.08
46291;BME280;32023;44.444;26.006;2023-03-13T10:47:39;100997.50;;;29.78;11.96
46291;BME280;32023;44.444;26.006;2023-03-13T10:50:11;101001.00;;;29.17;12.49
46291;BME280;32023;44.444;26.006;2023-03-13T11:07:49;101004.53;;;29.84;12.43
46291;BME280;32023;44.444;26.006;2023-03-13T11:13:05;100995.84;;;30.15;11.77
46291;BME280;32023;44.444;26.006;2023-03-13T11:15:40;100982.03;;;30.14;11.64
46291;BME280;32023;44.444;26.006;2023-03-13T11:21:02;100995.88;;;31.06;11.27
46291;BME280;32023;44.444;26.006;2023-03-13T11:26:37;100988.22;;;31.40;10.97
46291;BME280;32023;44.444;26.006;2023-03-13T11:29:16;101000.09;;;30.67;10.82
46291;BME280;32023;44.444;26.006;2023-03-13T11:31:59;100981.25;;;31.34;11.11
46291;BME280;32023;44.444;26.006;2023-03-13T11:34:39;100977.72;;;32.95;10.17
46291;BME280;32023;44.444;26.006;2023-03-13T11:37:10;100973.72;;;31.48;10.85
46291;BME280;32023;44.444;26.006;2023-03-13T11:39:54;100971.53;;;29.76;11.44
46291;BME280;32023;44.444;26.006;2023-03-13T12:01:06;100951.19;;;29.00;12.15
46291;BME280;32023;44.444;26.006;2023-03-13T12:06:40;100943.78;;;27.18;13.30
46291;BME280;32023;44.444;26.006;2023-03-13T12:09:15;100936.84;;;26.55;13.66
46291;BME280;32023;44.444;26.006;2023-03-13T12:11:54;100934.84;;;25.12;14.58
46291;BME280;32023;44.444;26.006;2023-03-13T12:14:35;100930.34;;;25.73;14.37
46291;BME280;32023;44.444;26.006;2023-03-13T12:17:07;100927.53;;;24.70;15.19
46291;BME280;32023;44.444;26.006;2023-03-13T12:22:16;100921.13;;;23.42;16.08
46291;BME280;32023;44.444;26.006;2023-03-13T12:24:55;100923.97;;;22.51;17.45
46291;BME280;32023;44.444;26.006;2023-03-13T12:27:25;100924.63;;;21.78;17.62
46291;BME280;32023;44.444;26.006;2023-03-13T12:40:11;100921.53;;;20.99;18.18
46291;BME280;32023;44.444;26.006;2023-03-13T12:42:57;100920.38;;;21.13;17.85
46291;BME280;32023;44.444;26.006;2023-03-13T12:45:34;100917.06;;;20.62;17.64
46291;BME280;32023;44.444;26.006;2023-03-13T12:48:13;100903.16;;;20.57;18.00
46291;BME280;32023;44.444;26.006;2023-03-13T12:53:27;100906.25;;;20.14;18.53
46291;BME280;32023;44.444;26.006;2023-03-13T13:01:50;100908.31;;;19.49;19.20
46291;BME280;32023;44.444;26.006;2023-03-13T13:04:33;100899.38;;;19.15;19.67
46291;BME280;32023;44.444;26.006;2023-03-13T13:10:03;100896.59;;;18.96;19.19
46291;BME280;32023;44.444;26.006;2023-03-13T13:15:33;100877.59;;;19.31;19.79
46291;BME280;32023;44.444;26.006;2023-03-13T13:18:00;100896.47;;;19.06;20.20
46291;BME280;32023;44.444;26.006;2023-03-13T13:20:47;100901.88;;;18.79;20.23
46291;BME280;32023;44.444;26.006;2023-03-13T13:23:31;100898.47;;;18.40;21.09
46291;BME280;32023;44.444;26.006;2023-03-13T13:28:45;100882.97;;;18.34;21.46
46291;BME280;32023;44.444;26.006;2023-03-13T13:31:54;100887.28;;;18.45;21.12
46291;BME280;32023;44.444;26.006;2023-03-13T13:34:01;100893.09;;;18.24;21.09
46291;BME280;32023;44.444;26.006;2023-03-13T13:36:27;100880.09;;;17.96;21.10
46291;BME280;32023;44.444;26.006;2023-03-13T13:39:00;100887.00;;;17.99;20.79
46291;BME280;32023;44.444;26.006;2023-03-13T13:41:32;100879.84;;;17.64;22.41
46291;BME280;32023;44.444;26.006;2023-03-13T13:44:21;100866.41;;;17.42;22.78
46291;BME280;32023;44.444;26.006;2023-03-13T13:46:50;100871.75;;;17.33;22.61
46291;BME280;32023;44.444;26.006;2023-03-13T13:49:20;100875.59;;;17.09;22.11
46291;BME280;32023;44.444;26.006;2023-03-13T13:57:20;100876.28;;;16.96;21.88
46291;BME280;32023;44.444;26.006;2023-03-13T13:59:51;100865.69;;;16.98;22.25
46291;BME280;32023;44.444;26.006;2023-03-13T14:02:25;100865.44;;;16.94;22.29
46291;BME280;32023;44.444;26.006;2023-03-13T14:05:14;100858.78;;;16.90;22.24
46291;BME280;32023;44.444;26.006;2023-03-13T14:08:19;100861.84;;;16.89;22.55
46291;BME280;32023;44.444;26.006;2023-03-13T14:10:53;100870.28;;;16.78;22.89
46291;BME280;32023;44.444;26.006;2023-03-13T14:13:23;100862.03;;;16.58;22.80
46291;BME280;32023;44.444;26.006;2023-03-13T14:16:13;100863.13;;;16.62;22.79
46291;BME280;32023;44.444;26.006;2023-03-13T14:18:49;100864.63;;;16.39;22.73
46291;BME280;32023;44.444;26.006;2023-03-13T14:21:25;100863.59;;;16.20;23.15
46291;BME280;32023;44.444;26.006;2023-03-13T14:26:50;100860.38;;;16.03;23.73
46291;BME280;32023;44.444;26.006;2023-03-13T14:29:22;100855.38;;;16.00;23.55
46291;BME280;32023;44.444;26.006;2023-03-13T14:31:58;100876.25;;;15.93;22.68
46291;BME280;32023;44.444;26.006;2023-03-13T14:34:24;100861.25;;;15.83;22.89
46291;BME280;32023;44.444;26.006;2023-03-13T14:37:12;100863.22;;;15.78;23.71
46291;BME280;32023;44.444;26.006;2023-03-13T15:16:52;100834.94;;;14.34;25.50
46291;BME280;32023;44.444;26.006;2023-03-13T15:19:59;100834.88;;;14.29;25.38
46291;BME280;32023;44.444;26.006;2023-03-13T15:23:00;100841.47;;;14.13;25.67
46291;BME280;32023;44.444;26.006;2023-03-13T15:50:00;100841.38;;;12.72;28.50
46291;BME280;32023;44.444;26.006;2023-03-13T15:56:31;100844.91;;;12.41;29.25
46291;BME280;32023;44.444;26.006;2023-03-13T15:59:31;100856.03;;;12.24;29.35
46291;BME280;32023;44.444;26.006;2023-03-13T16:02:25;100863.38;;;12.14;29.93
46291;BME280;32023;44.444;26.006;2023-03-13T16:14:34;100865.28;;;11.70;31.00
46291;BME280;32023;44.444;26.006;2023-03-13T16:20:21;100860.63;;;11.53;31.49
46291;BME280;32023;44.444;26.006;2023-03-13T16:22:51;100863.81;;;11.45;31.66
46291;BME280;32023;44.444;26.006;2023-03-13T16:25:21;100865.66;;;11.40;31.90
46291;BME280;32023;44.444;26.006;2023-03-13T16:28:11;100870.59;;;11.38;31.93
46291;BME280;32023;44.444;26.006;2023-03-13T16:30:58;100874.09;;;11.33;32.33
46291;BME280;32023;44.444;26.006;2023-03-13T16:33:27;100870.84;;;11.20;32.36
46291;BME280;32023;44.444;26.006;2023-03-13T16:36:22;100868.00;;;11.15;33.14
46291;BME280;32023;44.444;26.006;2023-03-13T16:39:12;100872.88;;;11.07;33.33
46291;BME280;32023;44.444;26.006;2023-03-13T16:41:48;100874.06;;;10.95;33.48
46291;BME280;32023;44.444;26.006;2023-03-13T16:49:46;100878.84;;;10.71;34.37
46291;BME280;32023;44.444;26.006;2023-03-13T16:52:15;100881.28;;;10.68;34.16
46291;BME280;32023;44.444;26.006;2023-03-13T17:04:06;100902.63;;;10.32;35.50
46291;BME280;32023;44.444;26.006;2023-03-13T17:09:43;100897.63;;;10.18;35.68
46291;BME280;32023;44.444;26.006;2023-03-13T17:12:35;100897.75;;;10.11;36.07
46291;BME280;32023;44.444;26.006;2023-03-13T17:15:07;100895.72;;;10.06;36.35
46291;BME280;32023;44.444;26.006;2023-03-13T17:17:41;100895.97;;;10.05;36.18
46291;BME280;32023;44.444;26.006;2023-03-13T17:23:17;100890.25;;;9.95;36.56
46291;BME280;32023;44.444;26.006;2023-03-13T17:25:44;100882.72;;;9.90;36.62
46291;BME280;32023;44.444;26.006;2023-03-13T17:28:11;100886.19;;;9.86;36.37
46291;BME280;32023;44.444;26.006;2023-03-13T17:30:55;100903.69;;;9.80;36.73
46291;BME280;32023;44.444;26.006;2023-03-13T17:37:07;100901.78;;;9.68;37.10
46291;BME280;32023;44.444;26.006;2023-03-13T17:49:10;100900.00;;;9.51;37.03
46291;BME280;32023;44.444;26.006;2023-03-13T18:03:13;100897.63;;;9.43;37.08
46291;BME280;32023;44.444;26.006;2023-03-13T18:12:43;100897.00;;;9.29;37.25
46291;BME280;32023;44.444;26.006;2023-03-13T18:22:01;100892.69;;;9.33;37.28
46291;BME280;32023;44.444;26.006;2023-03-13T18:24:53;100887.81;;;9.35;37.67
46291;BME280;32023;44.444;26.006;2023-03-13T18:46:53;100884.19;;;9.00;38.59
46291;BME280;32023;44.444;26.006;2023-03-13T18:49:54;100886.34;;;8.98;38.42
46291;BME280;32023;44.444;26.006;2023-03-13T18:52:42;100889.94;;;8.98;38.42
46291;BME280;32023;44.444;26.006;2023-03-13T18:55:09;100884.09;;;8.95;38.67
46291;BME280;32023;44.444;26.006;2023-03-13T18:57:43;100891.72;;;8.93;38.62
46291;BME280;32023;44.444;26.006;2023-03-13T19:06:26;100895.75;;;8.79;39.24
46291;BME280;32023;44.444;26.006;2023-03-13T19:12:04;100904.78;;;8.67;39.67
46291;BME280;32023;44.444;26.006;2023-03-13T19:14:51;100912.41;;;8.65;39.31
46291;BME280;32023;44.444;26.006;2023-03-13T19:17:28;100913.50;;;8.64;39.38
46291;BME280;32023;44.444;26.006;2023-03-13T19:20:02;100910.75;;;8.64;39.39
46291;BME280;32023;44.444;26.006;2023-03-13T19:22:29;100912.41;;;8.65;39.28
46291;BME280;32023;44.444;26.006;2023-03-13T19:24:58;100904.78;;;8.67;39.25
46291;BME280;32023;44.444;26.006;2023-03-13T19:27:43;100904.78;;;8.67;39.35
46291;BME280;32023;44.444;26.006;2023-03-13T19:30:28;100910.28;;;8.67;39.30
46291;BME280;32023;44.444;26.006;2023-03-13T19:38:15;100904.78;;;8.67;38.93